createdAt,value
2022-08-11T00:01:36.960Z,18.89
2022-08-11T00:04:05.946Z,18.93
2022-08-11T00:06:36.952Z,19.10
2022-08-11T00:09:11.017Z,18.96
2022-08-11T00:11:42.776Z,19.34
2022-08-11T00:14:33.709Z,19.05
2022-08-11T00:17:08.114Z,18.91
2022-08-11T00:20:13.260Z,19.00
2022-08-11T00:22:29.939Z,18.81
2022-08-11T00:25:02.401Z,18.83
2022-08-11T00:27:37.286Z,18.54
2022-08-11T00:30:07.014Z,18.66
2022-08-11T00:32:35.511Z,18.69
2022-08-11T00:35:51.871Z,18.68
2022-08-11T00:37:54.312Z,18.64
2022-08-11T00:40:35.885Z,18.87
2022-08-11T00:43:10.750Z,18.87
2022-08-11T00:46:12.419Z,18.87
2022-08-11T00:48:58.097Z,19.04
2022-08-11T00:52:09.862Z,18.98
2022-08-11T00:54:39.645Z,18.83
2022-08-11T00:57:36.134Z,19.40
2022-08-11T01:00:22.798Z,18.97
2022-08-11T01:03:08.706Z,19.28
2022-08-11T01:06:03.007Z,19.91
2022-08-11T01:08:34.319Z,19.81
2022-08-11T01:11:35.290Z,19.65
2022-08-11T01:14:33.742Z,19.27
2022-08-11T01:17:20.945Z,19.21
2022-08-11T01:20:44.749Z,19.07
2022-08-11T01:23:09.612Z,19.24
2022-08-11T01:26:01.898Z,19.39
2022-08-11T01:28:50.100Z,19.31
2022-08-11T01:31:54.666Z,19.45
2022-08-11T01:35:01.312Z,19.27
2022-08-11T01:37:40.338Z,18.95
2022-08-11T01:40:19.359Z,19.16
2022-08-11T01:43:20.187Z,19.05
2022-08-11T01:46:14.749Z,19.20
2022-08-11T01:50:05.917Z,18.95
2022-08-11T01:52:06.437Z,18.85
2022-08-11T01:54:40.621Z,19.11
2022-08-11T01:57:41.822Z,18.88
2022-08-11T02:00:20.123Z,19.00
2022-08-11T02:03:11.413Z,18.85
2022-08-11T02:06:30.783Z,18.78
2022-08-11T02:08:57.654Z,18.84
2022-08-11T02:11:35.590Z,19.18
2022-08-11T02:14:57.287Z,19.06
2022-08-11T02:18:06.216Z,19.17
2022-08-11T02:21:06.864Z,19.18
2022-08-11T02:24:00.552Z,19.72
2022-08-11T02:26:41.359Z,19.23
2022-08-11T02:29:31.102Z,19.52
2022-08-11T02:32:31.613Z,19.12
2022-08-11T02:35:19.877Z,18.86
2022-08-11T02:38:08.654Z,19.15
2022-08-11T02:41:00.283Z,18.61
2022-08-11T02:43:51.178Z,18.65
2022-08-11T02:46:24.062Z,18.90
2022-08-11T02:49:17.110Z,19.02
2022-08-11T02:52:09.522Z,18.98
2022-08-11T02:55:02.430Z,19.04
2022-08-11T02:57:34.024Z,19.10
2022-08-11T03:00:07.609Z,19.50
2022-08-11T03:03:02.806Z,19.49
2022-08-11T03:05:53.251Z,19.68
2022-08-11T03:08:58.123Z,19.70
2022-08-11T03:12:05.070Z,19.61
2022-08-11T03:15:05.376Z,19.65
2022-08-11T03:17:53.076Z,18.98
2022-08-11T03:20:56.842Z,19.53
2022-08-11T03:23:50.276Z,19.34
2022-08-11T03:26:47.519Z,19.26
2022-08-11T03:29:47.921Z,19.27
2022-08-11T03:32:37.157Z,19.20
2022-08-11T03:35:06.443Z,19.37
2022-08-11T03:37:56.694Z,19.18
2022-08-11T03:41:49.318Z,19.08
2022-08-11T03:44:30.837Z,19.02
2022-08-11T03:47:03.753Z,19.07
2022-08-11T03:49:50.640Z,19.06
2022-08-11T03:52:17.918Z,18.91
2022-08-11T03:55:22.033Z,19.09
2022-08-11T03:58:06.997Z,19.19
2022-08-11T04:01:24.859Z,18.97
2022-08-11T04:04:29.458Z,19.55
2022-08-11T04:07:17.989Z,19.20
2022-08-11T04:10:08.959Z,19.27
2022-08-11T04:13:00.157Z,19.18
2022-08-11T04:16:11.010Z,18.98
2022-08-11T04:19:13.377Z,19.34
2022-08-11T04:21:57.196Z,19.54
2022-08-11T04:24:39.776Z,19.34
2022-08-11T04:27:19.137Z,19.58
2022-08-11T04:30:08.915Z,19.38
2022-08-11T04:32:59.860Z,19.35
2022-08-11T04:35:51.432Z,19.47
2022-08-11T04:38:49.207Z,19.59
2022-08-11T04:41:34.467Z,19.61
2022-08-11T04:44:19.325Z,19.65
2022-08-11T04:48:01.869Z,19.68
2022-08-11T04:51:19.029Z,20.31
2022-08-11T04:54:41.822Z,20.08
2022-08-11T04:58:04.680Z,20.38
2022-08-11T05:01:13.505Z,20.03
2022-08-11T05:04:05.351Z,19.95
2022-08-11T05:07:01.430Z,20.78
2022-08-11T05:09:46.511Z,20.98
2022-08-11T05:12:37.828Z,21.05
2022-08-11T05:15:24.766Z,21.53
2022-08-11T05:18:33.134Z,21.66
2022-08-11T05:21:25.489Z,21.35
2022-08-11T05:24:21.556Z,22.05
2022-08-11T05:27:13.610Z,21.73
2022-08-11T05:30:06.181Z,21.91
2022-08-11T05:33:01.723Z,21.87
2022-08-11T05:36:02.189Z,22.68
2022-08-11T05:38:53.526Z,22.76
2022-08-11T05:41:45.021Z,22.82
2022-08-11T05:44:37.612Z,23.60
2022-08-11T05:47:23.786Z,24.24
2022-08-11T05:50:13.686Z,23.23
2022-08-11T05:53:04.871Z,23.58
2022-08-11T05:56:02.763Z,23.79
2022-08-11T05:58:43.051Z,24.41
2022-08-11T06:01:13.313Z,24.03
2022-08-11T06:04:03.870Z,23.60
2022-08-11T06:06:31.648Z,24.28
2022-08-11T06:09:01.167Z,24.53
2022-08-11T06:11:44.388Z,24.34
2022-08-11T06:14:12.945Z,24.61
2022-08-11T06:16:42.039Z,25.40
2022-08-11T06:19:10.404Z,24.42
2022-08-11T06:21:38.313Z,24.40
2022-08-11T06:24:13.022Z,24.34
2022-08-11T06:27:01.647Z,24.04
2022-08-11T06:29:37.653Z,24.33
2022-08-11T06:32:15.762Z,23.84
2022-08-11T06:35:20.137Z,24.34
2022-08-11T06:37:58.986Z,24.93
2022-08-11T06:41:15.491Z,24.54
2022-08-11T06:43:55.348Z,24.86
2022-08-11T06:46:30.451Z,24.62
2022-08-11T06:48:58.001Z,24.98
2022-08-11T06:51:25.447Z,24.91
2022-08-11T06:54:04.154Z,25.31
2022-08-11T06:57:26.346Z,25.78
2022-08-11T07:00:03.762Z,25.76
2022-08-11T07:02:52.953Z,26.47
2022-08-11T07:05:37.720Z,25.84
2022-08-11T07:08:41.211Z,25.66
2022-08-11T07:16:12.464Z,26.15
2022-08-11T07:18:55.038Z,25.92
2022-08-11T07:22:02.832Z,26.15
2022-08-11T07:25:21.762Z,26.65
2022-08-11T07:28:15.194Z,26.53
2022-08-11T07:30:43.453Z,26.70
2022-08-11T07:33:20.728Z,26.54
2022-08-11T07:36:03.087Z,26.87
2022-08-11T07:38:47.227Z,26.89
2022-08-11T07:41:17.032Z,26.06
2022-08-11T07:43:50.098Z,26.08
2022-08-11T07:46:37.181Z,27.38
2022-08-11T07:49:25.985Z,27.56
2022-08-11T07:52:13.405Z,27.76
2022-08-11T07:54:41.811Z,28.51
2022-08-11T07:58:13.554Z,28.63
2022-08-11T08:00:37.767Z,28.72
2022-08-11T08:03:24.796Z,27.50
2022-08-11T08:06:28.458Z,28.70
2022-08-11T08:09:16.452Z,28.37
2022-08-11T08:12:03.608Z,29.18
2022-08-11T08:14:50.795Z,30.04
2022-08-11T08:17:36.687Z,28.85
2022-08-11T08:20:04.731Z,29.96
2022-08-11T08:22:37.834Z,29.06
2022-08-11T08:25:07.617Z,28.45
2022-08-11T08:27:36.498Z,28.60
2022-08-11T08:30:25.026Z,29.47
2022-08-11T08:32:53.032Z,29.93
2022-08-11T08:35:21.008Z,30.12
2022-08-11T08:37:51.406Z,29.62
2022-08-11T08:40:19.190Z,30.15
2022-08-11T08:42:53.784Z,30.84
2022-08-11T08:45:22.048Z,30.32
2022-08-11T08:47:59.334Z,31.01
2022-08-11T08:50:52.018Z,30.15
2022-08-11T08:53:29.740Z,30.93
2022-08-11T08:55:59.897Z,30.87
2022-08-11T08:58:27.833Z,31.61
2022-08-11T09:00:58.245Z,32.45
2022-08-11T09:04:05.099Z,31.91
2022-08-11T09:06:16.914Z,32.03
2022-08-11T09:08:45.526Z,32.20
2022-08-11T09:11:33.649Z,33.52
2022-08-11T09:14:06.667Z,33.14
2022-08-11T09:16:37.080Z,31.95
2022-08-11T09:19:04.729Z,31.57
2022-08-11T09:21:44.600Z,32.29
2022-08-11T09:24:36.686Z,31.95
2022-08-11T09:27:08.739Z,31.84
2022-08-11T09:29:38.530Z,32.25
2022-08-11T09:32:07.408Z,32.51
2022-08-11T09:34:37.715Z,31.52
2022-08-11T09:37:53.682Z,31.39
2022-08-11T09:40:32.394Z,31.86
2022-08-11T09:43:21.825Z,32.41
2022-08-11T09:45:51.777Z,32.62
2022-08-11T09:48:26.820Z,33.17
2022-08-11T09:51:01.704Z,31.91
2022-08-11T09:53:37.264Z,32.76
2022-08-11T09:56:30.891Z,31.92
2022-08-11T09:58:59.239Z,32.89
2022-08-11T10:01:31.086Z,32.22
2022-08-11T10:04:06.683Z,32.39
2022-08-11T10:06:56.441Z,33.50
2022-08-11T10:09:25.637Z,34.80
2022-08-11T10:11:58.818Z,35.38
2022-08-11T10:14:47.644Z,33.88
2022-08-11T10:17:18.895Z,33.86
2022-08-11T10:20:04.072Z,34.59
2022-08-11T10:22:53.340Z,34.92
2022-08-11T10:25:40.971Z,34.84
2022-08-11T10:28:30.710Z,33.97
2022-08-11T10:31:16.888Z,33.93
2022-08-11T10:34:00.862Z,34.42
2022-08-11T10:36:31.416Z,33.84
2022-08-11T10:39:00.455Z,34.51
2022-08-11T10:42:06.903Z,35.09
2022-08-11T10:44:38.902Z,34.41
2022-08-11T10:47:26.568Z,34.71
2022-08-11T10:50:14.764Z,34.47
2022-08-11T10:53:01.834Z,34.39
2022-08-11T10:55:48.551Z,34.48
2022-08-11T10:58:35.291Z,35.70
2022-08-11T11:01:03.568Z,34.17
2022-08-11T11:03:34.698Z,34.63
2022-08-11T11:06:29.456Z,35.20
2022-08-11T11:09:04.412Z,34.90
2022-08-11T11:11:56.232Z,34.94
2022-08-11T11:14:50.747Z,35.93
2022-08-11T11:17:47.796Z,35.24
2022-08-11T11:20:36.357Z,35.58
2022-08-11T11:23:20.615Z,35.60
2022-08-11T11:26:27.030Z,35.77
2022-08-11T11:29:09.832Z,34.63
2022-08-11T11:32:10.764Z,34.82
2022-08-11T11:34:37.653Z,34.65
2022-08-11T11:37:21.308Z,35.20
2022-08-11T11:39:48.861Z,35.53
2022-08-11T11:42:18.535Z,35.39
2022-08-11T11:44:47.501Z,35.44
2022-08-11T11:47:21.714Z,34.82
2022-08-11T11:49:50.379Z,34.28
2022-08-11T11:52:20.413Z,34.75
2022-08-11T11:54:50.509Z,35.54
2022-08-11T11:57:38.167Z,34.92
2022-08-11T12:00:33.663Z,33.43
2022-08-11T12:03:10.951Z,33.92
2022-08-11T12:05:41.895Z,34.34
2022-08-11T12:08:16.438Z,34.98
2022-08-11T12:10:43.393Z,34.51
2022-08-11T12:13:29.997Z,34.03
2022-08-11T12:16:31.775Z,34.35
2022-08-11T12:18:47.820Z,35.21
2022-08-11T12:21:19.818Z,35.37
2022-08-11T12:24:07.976Z,36.09
2022-08-11T12:27:16.080Z,36.67
2022-08-11T12:29:45.378Z,35.38
2022-08-11T12:32:13.027Z,36.69
2022-08-11T12:34:40.321Z,36.65
2022-08-11T12:37:13.683Z,36.55
2022-08-11T12:40:16.077Z,36.24
2022-08-11T12:43:21.253Z,37.34
2022-08-11T12:45:59.715Z,37.15
2022-08-11T12:49:00.986Z,35.63
2022-08-11T12:52:13.648Z,35.74
2022-08-11T12:54:57.859Z,35.65
2022-08-11T12:57:51.433Z,34.84
2022-08-11T13:00:38.646Z,34.17
2022-08-11T13:03:26.591Z,33.82
2022-08-11T13:05:56.603Z,34.51
2022-08-11T13:08:25.221Z,34.42
2022-08-11T13:11:13.412Z,34.13
2022-08-11T13:13:53.649Z,33.48
2022-08-11T13:17:02.171Z,33.58
2022-08-11T13:19:30.609Z,33.21
2022-08-11T13:21:58.206Z,33.01
2022-08-11T13:24:25.422Z,33.79
2022-08-11T13:26:52.656Z,33.68
2022-08-11T13:29:22.854Z,33.19
2022-08-11T13:31:51.543Z,32.97
2022-08-11T13:34:20.508Z,33.40
2022-08-11T13:36:52.342Z,33.64
2022-08-11T13:39:24.144Z,33.10
2022-08-11T13:41:53.793Z,33.06
2022-08-11T13:44:25.658Z,32.98
2022-08-11T13:46:57.772Z,32.27
2022-08-11T13:49:26.083Z,31.58
2022-08-11T13:51:55.407Z,31.34
2022-08-11T13:54:26.527Z,31.26
2022-08-11T13:56:57.067Z,32.47
2022-08-11T13:59:29.534Z,32.93
2022-08-11T14:02:22.826Z,32.41
2022-08-11T14:05:20.129Z,31.65
2022-08-11T14:07:52.647Z,30.85
2022-08-11T14:10:26.636Z,31.19
2022-08-11T14:13:17.722Z,31.10
2022-08-11T14:15:48.269Z,31.28
2022-08-11T14:18:19.467Z,31.50
2022-08-11T14:21:17.455Z,30.77
2022-08-11T14:23:50.904Z,30.64
2022-08-11T14:26:24.370Z,30.51
2022-08-11T14:28:57.288Z,31.00
2022-08-11T14:31:27.035Z,31.58
2022-08-11T14:34:02.389Z,31.50
2022-08-11T14:36:34.129Z,31.41
2022-08-11T14:39:04.679Z,31.35
2022-08-11T14:42:10.960Z,31.30
2022-08-11T14:44:57.692Z,31.52
2022-08-11T14:47:25.963Z,31.46
2022-08-11T14:50:09.885Z,31.39
2022-08-11T14:52:43.850Z,31.35
2022-08-11T14:55:30.608Z,30.98
2022-08-11T14:57:58.282Z,30.96
2022-08-11T15:00:26.228Z,30.59
2022-08-11T15:03:13.663Z,30.30
2022-08-11T15:05:56.286Z,30.09
2022-08-11T15:08:49.002Z,30.37
2022-08-11T15:11:41.208Z,31.10
2022-08-11T15:14:10.627Z,31.30
2022-08-11T15:17:00.187Z,31.40
2022-08-11T15:19:30.173Z,31.08
2022-08-11T15:22:28.165Z,30.81
2022-08-11T15:24:57.505Z,30.87
2022-08-11T15:27:44.583Z,30.54
2022-08-11T15:30:33.767Z,30.40
2022-08-11T15:33:29.847Z,30.02
2022-08-11T15:36:16.511Z,30.33
2022-08-11T15:39:20.715Z,30.55
2022-08-11T15:42:15.799Z,30.03
2022-08-11T15:45:06.171Z,30.18
2022-08-11T15:47:41.761Z,30.25
2022-08-11T15:50:18.285Z,29.76
2022-08-11T15:53:34.093Z,29.85
2022-08-11T15:56:02.934Z,30.35
2022-08-11T15:59:10.755Z,30.02
2022-08-11T16:02:01.438Z,29.76
2022-08-11T16:04:31.525Z,29.81
2022-08-11T16:07:02.337Z,30.20
2022-08-11T16:09:30.379Z,30.18
2022-08-11T16:12:17.437Z,30.30
2022-08-11T16:15:06.662Z,30.15
2022-08-11T16:17:44.572Z,30.20
2022-08-11T16:20:17.497Z,30.26
2022-08-11T16:23:01.408Z,29.97
2022-08-11T16:27:06.988Z,29.84
2022-08-11T16:28:20.923Z,29.60
2022-08-11T16:30:49.233Z,29.77
2022-08-11T16:33:47.913Z,29.81
2022-08-11T16:36:25.579Z,29.56
2022-08-11T16:38:54.429Z,29.60
2022-08-11T16:41:41.958Z,29.30
2022-08-11T16:44:32.539Z,29.00
2022-08-11T16:47:07.284Z,28.90
2022-08-11T16:49:43.428Z,28.81
2022-08-11T16:52:18.498Z,28.68
2022-08-11T16:54:47.891Z,28.64
2022-08-11T16:57:42.048Z,28.65
2022-08-11T17:00:12.808Z,28.17
2022-08-11T17:03:04.643Z,28.23
2022-08-11T17:05:55.159Z,28.11
2022-08-11T17:08:56.673Z,27.97
2022-08-11T17:11:50.532Z,27.95
2022-08-11T17:14:35.029Z,27.95
2022-08-11T17:17:06.363Z,27.85
2022-08-11T17:20:39.928Z,27.69
2022-08-11T17:22:44.316Z,27.52
2022-08-11T17:25:13.169Z,27.39
2022-08-11T17:27:41.356Z,27.52
2022-08-11T17:30:09.670Z,27.30
2022-08-11T17:33:00.425Z,27.29
2022-08-11T17:35:41.247Z,27.14
2022-08-11T17:38:16.051Z,27.05
2022-08-11T17:41:08.546Z,27.07
2022-08-11T17:43:55.075Z,27.03
2022-08-11T17:46:41.555Z,27.04
2022-08-11T17:49:11.434Z,27.05
2022-08-11T17:51:58.129Z,27.07
2022-08-11T17:54:44.786Z,26.98
2022-08-11T17:57:32.915Z,26.95
2022-08-11T18:00:02.294Z,26.87
2022-08-11T18:03:03.532Z,26.77
2022-08-11T18:05:34.137Z,26.85
2022-08-11T18:08:24.087Z,26.90
2022-08-11T18:11:11.685Z,26.92
2022-08-11T18:14:03.764Z,26.94
2022-08-11T18:16:49.518Z,26.83
2022-08-11T18:19:35.497Z,26.84
2022-08-11T18:22:38.628Z,26.72
2022-08-11T18:25:34.321Z,26.54
2022-08-11T18:28:23.975Z,26.34
2022-08-11T18:31:15.517Z,26.45
2022-08-11T18:34:12.974Z,26.54
2022-08-11T18:37:09.935Z,26.76
2022-08-11T18:40:12.242Z,26.47
2022-08-11T18:43:00.410Z,26.58
2022-08-11T18:45:46.300Z,26.38
2022-08-11T18:48:39.471Z,26.36
2022-08-11T18:51:29.765Z,26.31
2022-08-11T18:54:21.304Z,26.34
2022-08-11T18:57:08.019Z,26.23
2022-08-11T18:59:57.130Z,26.18
2022-08-11T19:02:48.687Z,26.41
2022-08-11T19:06:33.774Z,26.28
2022-08-11T19:08:53.537Z,26.41
2022-08-11T19:11:42.710Z,26.19
2022-08-11T19:14:33.895Z,26.08
2022-08-11T19:17:44.785Z,26.17
2022-08-11T19:20:29.934Z,26.20
2022-08-11T19:23:16.560Z,26.15
2022-08-11T19:26:03.847Z,26.17
2022-08-11T19:28:52.097Z,26.13
2022-08-11T19:31:44.441Z,25.92
2022-08-11T19:34:34.294Z,25.86
2022-08-11T19:37:24.283Z,25.91
2022-08-11T19:40:18.488Z,25.87
2022-08-11T19:43:14.930Z,26.00
2022-08-11T19:46:16.978Z,25.79
2022-08-11T19:49:05.035Z,25.79
2022-08-11T19:51:54.710Z,25.51
2022-08-11T19:54:46.332Z,25.49
2022-08-11T19:57:38.691Z,25.56
2022-08-11T20:00:35.809Z,25.37
2022-08-11T20:03:24.791Z,25.41
2022-08-11T20:06:11.474Z,25.39
2022-08-11T20:09:01.134Z,25.43
2022-08-11T20:11:57.449Z,25.34
2022-08-11T20:14:45.240Z,25.36
2022-08-11T20:17:32.502Z,25.33
2022-08-11T20:20:22.500Z,25.07
2022-08-11T20:23:15.043Z,25.20
2022-08-11T20:26:14.152Z,24.92
2022-08-11T20:29:08.934Z,25.06
2022-08-11T20:31:56.190Z,24.89
2022-08-11T20:34:42.576Z,24.76
2022-08-11T20:37:30.117Z,24.70
2022-08-11T20:40:17.699Z,24.65
2022-08-11T20:43:09.791Z,24.68
2022-08-11T20:46:15.850Z,24.65
2022-08-11T20:49:03.395Z,24.49
2022-08-11T20:51:50.264Z,24.59
2022-08-11T20:54:43.591Z,24.54
2022-08-11T20:57:59.174Z,24.55
2022-08-11T21:00:39.997Z,24.54
2022-08-11T21:03:35.614Z,24.46
2022-08-11T21:06:31.518Z,24.51
2022-08-11T21:09:25.026Z,24.30
2022-08-11T21:15:39.074Z,24.36
2022-08-11T21:18:28.431Z,24.37
2022-08-11T21:21:18.512Z,24.32
2022-08-11T21:24:07.226Z,24.01
2022-08-11T21:27:03.458Z,24.07
2022-08-11T21:29:53.003Z,23.95
2022-08-11T21:32:40.188Z,24.07
2022-08-11T21:35:27.764Z,24.03
2022-08-11T21:38:14.362Z,23.94
2022-08-11T21:41:01.001Z,24.13
2022-08-11T21:43:49.404Z,24.06
2022-08-11T21:46:38.195Z,23.80
2022-08-11T21:49:27.231Z,23.83
2022-08-11T21:52:12.829Z,23.71
2022-08-11T21:54:59.590Z,23.71
2022-08-11T21:57:48.148Z,23.57
2022-08-11T22:00:35.617Z,23.43
2022-08-11T22:03:22.831Z,23.46
2022-08-11T22:06:09.839Z,23.42
2022-08-11T22:08:55.505Z,23.40
2022-08-11T22:11:41.147Z,23.43
2022-08-11T22:14:26.623Z,23.42
2022-08-11T22:17:12.413Z,23.53
2022-08-11T22:20:00.695Z,23.37
2022-08-11T22:22:52.988Z,23.29
2022-08-11T22:25:54.261Z,23.23
2022-08-11T22:28:41.489Z,23.17
2022-08-11T22:31:29.125Z,23.18
2022-08-11T22:34:14.681Z,23.14
2022-08-11T22:37:02.215Z,23.20
2022-08-11T22:40:02.266Z,23.41
2022-08-11T22:42:50.717Z,23.27
2022-08-11T22:45:36.819Z,23.39
2022-08-11T22:48:27.076Z,23.33
2022-08-11T22:51:14.384Z,23.23
2022-08-11T22:53:59.917Z,23.24
2022-08-11T22:56:47.542Z,23.25
2022-08-11T22:59:34.829Z,23.68
2022-08-11T23:02:22.430Z,23.70
2022-08-11T23:05:09.005Z,23.52
2022-08-11T23:07:56.298Z,23.56
2022-08-11T23:10:42.838Z,23.84
2022-08-11T23:13:29.364Z,24.03
2022-08-11T23:16:15.575Z,23.49
2022-08-11T23:19:01.692Z,23.70
2022-08-11T23:21:47.929Z,23.58
2022-08-11T23:24:34.712Z,23.08
2022-08-11T23:27:21.790Z,23.12
2022-08-11T23:30:09.331Z,23.13
2022-08-11T23:32:58.180Z,23.03
2022-08-11T23:35:54.908Z,22.96
2022-08-11T23:38:42.486Z,22.71
2022-08-11T23:41:28.565Z,22.89
2022-08-11T23:44:14.122Z,22.96
2022-08-11T23:47:01.354Z,22.53
2022-08-11T23:49:48.496Z,22.68
2022-08-11T23:52:34.575Z,22.41
2022-08-11T23:55:21.494Z,22.41
2022-08-11T23:58:07.111Z,22.30
